Time;durP1;ratioP1;P1;durP2;ratioP2;P2;SDS_P1;SDS_P2;PMS_P1;PMS_P2;Temp;Humidity;BMP_temperature;BMP_pressure;BME280_temperature;BME280_humidity;BME280_pressure;Samples;Min_cycle;Max_cycle;Signal;HPM_P1;HPM_P2
2022/07/03 00:02:24;;;;;;;9.32;9.02;;;17.40;99.90;;;;;;5078380;28;20250;-78
2022/07/03 00:04:51;;;;;;;9.30;9.00;;;17.30;99.90;;;;;;5078264;28;20333;-79
2022/07/03 00:07:19;;;;;;;9.20;8.90;;;17.30;99.90;;;;;;5075263;28;20258;-78
2022/07/03 00:09:47;;;;;;;9.40;9.10;;;17.30;99.90;;;;;;5075225;28;20218;-77
2022/07/03 00:12:16;;;;;;;9.27;8.98;;;17.30;99.90;;;;;;5075035;28;20324;-78
2022/07/03 00:14:43;;;;;;;9.40;9.10;;;17.20;99.90;;;;;;5078455;28;20778;-80
2022/07/03 00:17:11;;;;;;;9.27;8.98;;;17.20;99.90;;;;;;5075525;28;20272;-81
2022/07/03 00:19:38;;;;;;;9.25;8.95;;;17.20;99.90;;;;;;5076236;28;20238;-78
2022/07/03 00:22:11;;;;;;;9.10;8.80;;;17.10;99.90;;;;;;5077658;28;20249;-78
2022/07/03 00:24:45;;;;;;;9.30;9.00;;;17.10;99.90;;;;;;5078467;28;20230;-77
2022/07/03 00:27:13;;;;;;;8.85;8.65;;;17.10;99.90;;;;;;5081864;28;20249;-78
2022/07/03 00:29:44;;;;;;;9.23;8.93;;;17.10;99.90;;;;;;5082767;28;20294;-78
2022/07/03 00:32:14;;;;;;;9.20;8.90;;;17.10;99.90;;;;;;5082038;28;20220;-78
2022/07/03 00:34:44;;;;;;;9.32;9.02;;;17.00;99.90;;;;;;5081764;28;20245;-78
2022/07/03 00:37:12;;;;;;;9.35;9.05;;;17.00;99.90;;;;;;5081222;28;20238;-78
2022/07/03 00:39:43;;;;;;;9.20;8.90;;;16.90;99.90;;;;;;5081483;28;20234;-80
2022/07/03 00:42:13;;;;;;;9.20;8.90;;;16.90;99.90;;;;;;5081486;28;20314;-80
2022/07/03 00:44:48;;;;;;;9.15;8.85;;;16.90;99.90;;;;;;5081324;28;20249;-80
2022/07/03 00:47:17;;;;;;;9.40;9.10;;;16.80;99.90;;;;;;5081099;28;20233;-80
2022/07/03 00:49:50;;;;;;;9.52;9.23;;;16.80;99.90;;;;;;5080171;28;20288;-80
2022/07/03 00:52:20;;;;;;;9.40;9.10;;;16.70;99.90;;;;;;5081764;28;20222;-79
2022/07/03 00:54:54;;;;;;;9.57;9.27;;;16.60;99.90;;;;;;5079783;28;20313;-81
2022/07/03 00:57:24;;;;;;;9.40;9.10;;;16.40;99.90;;;;;;5079695;28;20263;-80
2022/07/03 00:59:54;;;;;;;9.45;9.15;;;16.30;99.90;;;;;;5079784;28;20244;-79
2022/07/03 01:02:36;;;;;;;9.32;9.02;;;16.30;99.90;;;;;;5080453;28;20242;-80
2022/07/03 01:05:12;;;;;;;9.18;8.88;;;16.20;99.90;;;;;;5079643;28;20290;-80
2022/07/03 01:07:49;;;;;;;9.30;9.00;;;16.10;99.90;;;;;;5080560;28;20241;-80
2022/07/03 01:10:32;;;;;;;9.20;8.90;;;16.10;99.90;;;;;;5080738;28;20226;-80
2022/07/03 01:13:08;;;;;;;9.40;9.10;;;16.00;99.90;;;;;;5079684;28;20230;-81
2022/07/03 01:15:50;;;;;;;9.23;8.93;;;16.00;99.90;;;;;;5079658;28;20238;-81
2022/07/03 01:18:33;;;;;;;9.32;9.02;;;16.00;99.90;;;;;;5080250;28;20249;-81
2022/07/03 01:21:09;;;;;;;9.32;9.02;;;16.00;99.90;;;;;;5080233;28;20294;-81
2022/07/03 01:24:19;;;;;;;9.25;8.95;;;15.90;99.90;;;;;;5080276;28;21045;-81
2022/07/03 01:26:49;;;;;;;9.30;9.00;;;15.90;99.90;;;;;;5088731;28;20234;-79
2022/07/03 01:29:23;;;;;;;9.00;8.70;;;15.80;99.90;;;;;;5089827;28;20222;-79
2022/07/03 01:31:55;;;;;;;9.43;9.13;;;15.80;99.90;;;;;;5090512;28;20262;-79
2022/07/03 01:34:27;;;;;;;9.10;8.80;;;15.70;99.90;;;;;;5085851;28;20278;-79
2022/07/03 01:36:57;;;;;;;9.30;9.00;;;15.70;99.90;;;;;;5084850;28;20705;-79
2022/07/03 01:39:28;;;;;;;9.20;8.90;;;15.70;99.90;;;;;;5086475;28;20352;-79
2022/07/03 01:42:01;;;;;;;9.50;9.20;;;15.70;99.90;;;;;;5084617;28;20232;-79
2022/07/03 01:44:30;;;;;;;9.20;8.90;;;15.70;99.90;;;;;;5082747;28;20220;-79
2022/07/03 01:46:59;;;;;;;9.23;8.93;;;15.70;99.90;;;;;;5081350;28;20336;-79
2022/07/03 01:49:29;;;;;;;9.40;9.10;;;15.70;99.90;;;;;;5080685;28;20237;-79
2022/07/03 01:51:59;;;;;;;9.50;9.20;;;15.70;99.90;;;;;;5081681;28;20286;-78
2022/07/03 01:54:27;;;;;;;9.10;8.80;;;15.70;99.90;;;;;;5079929;28;20232;-79
2022/07/03 01:56:56;;;;;;;8.90;8.68;;;15.70;99.90;;;;;;5081506;28;20241;-79
2022/07/03 01:59:24;;;;;;;9.32;9.02;;;15.70;99.90;;;;;;5080939;28;20270;-78
2022/07/03 02:01:59;;;;;;;9.20;8.90;;;15.70;99.90;;;;;;5079983;28;20226;-79
2022/07/03 02:04:34;;;;;;;8.90;8.70;;;15.70;99.90;;;;;;5080059;28;20226;-79
2022/07/03 02:07:09;;;;;;;9.30;9.00;;;15.60;99.90;;;;;;5080044;28;20264;-79
2022/07/03 02:09:47;;;;;;;9.45;9.15;;;15.50;99.90;;;;;;5079891;28;20237;-79
2022/07/03 02:12:20;;;;;;;9.18;8.88;;;15.50;99.90;;;;;;5079003;28;20332;-79
2022/07/03 02:15:04;;;;;;;9.40;9.10;;;15.50;99.90;;;;;;5078633;28;20221;-79
2022/07/03 02:17:40;;;;;;;9.30;9.00;;;15.40;99.90;;;;;;5079436;28;20237;-79
2022/07/03 02:20:10;;;;;;;9.30;9.00;;;15.30;99.90;;;;;;5079113;28;20295;-79
2022/07/03 02:22:42;;;;;;;9.50;9.20;;;15.30;99.90;;;;;;5078840;28;20242;-79
2022/07/03 02:25:17;;;;;;;9.20;8.90;;;15.20;99.90;;;;;;5078473;28;20229;-79
2022/07/03 02:27:56;;;;;;;9.07;8.77;;;15.10;99.90;;;;;;5082124;28;20795;-79
2022/07/03 02:30:25;;;;;;;9.40;9.10;;;15.10;99.90;;;;;;5079170;28;20230;-79
2022/07/03 02:32:53;;;;;;;9.40;9.10;;;15.00;99.90;;;;;;5078798;28;20234;-78
2022/07/03 02:35:27;;;;;;;9.20;8.90;;;15.00;99.90;;;;;;5077513;28;20286;-79
2022/07/03 02:38:02;;;;;;;9.20;8.90;;;15.00;99.90;;;;;;5078996;28;20258;-79
2022/07/03 02:40:37;;;;;;;9.30;9.00;;;14.90;99.90;;;;;;5078171;28;20242;-79
2022/07/03 02:43:32;;;;;;;9.35;9.05;;;14.90;99.90;;;;;;5080899;28;20282;-79
2022/07/03 02:46:48;;;;;;;9.07;8.77;;;14.90;99.90;;;;;;5079298;28;20322;-79
2022/07/03 02:49:02;;;;;;;9.53;9.23;;;14.90;99.90;;;;;;5079406;28;20234;-79
2022/07/03 02:51:38;;;;;;;9.80;9.50;;;14.90;99.90;;;;;;5078937;28;20230;-79
2022/07/03 02:54:14;;;;;;;9.70;9.40;;;14.90;99.90;;;;;;5077703;28;20226;-78
2022/07/03 02:57:06;;;;;;;9.65;9.35;;;14.80;99.90;;;;;;5077820;28;20229;-79
2022/07/03 02:59:47;;;;;;;9.50;9.20;;;14.80;99.90;;;;;;5077742;28;20333;-78
2022/07/03 03:02:24;;;;;;;9.90;9.60;;;14.80;99.90;;;;;;5077994;28;20230;-79
2022/07/03 03:05:00;;;;;;;9.63;9.32;;;14.70;99.90;;;;;;5078162;28;20281;-78
2022/07/03 03:07:35;;;;;;;9.60;9.30;;;14.70;99.90;;;;;;5077893;28;20236;-78
2022/07/03 03:10:03;;;;;;;9.50;9.20;;;14.70;99.90;;;;;;5078281;28;20647;-79
2022/07/03 03:12:34;;;;;;;9.57;9.27;;;14.70;99.90;;;;;;5078156;28;20234;-78
2022/07/03 03:15:06;;;;;;;9.30;9.00;;;14.70;99.90;;;;;;5076770;28;20230;-79
2022/07/03 03:17:43;;;;;;;9.43;9.13;;;14.70;99.90;;;;;;5077771;28;20229;-79
2022/07/03 03:20:18;;;;;;;9.40;9.10;;;14.70;99.90;;;;;;5077139;28;20291;-79
2022/07/03 03:23:15;;;;;;;9.30;9.00;;;14.70;99.90;;;;;;5079553;28;20233;-79
2022/07/03 03:25:43;;;;;;;9.50;9.20;;;14.70;99.90;;;;;;5078936;28;20221;-79
2022/07/03 03:28:10;;;;;;;9.23;8.93;;;14.60;99.90;;;;;;5079663;28;20223;-79
2022/07/03 03:30:39;;;;;;;9.30;9.00;;;14.60;99.90;;;;;;5078969;28;20222;-78
2022/07/03 03:33:09;;;;;;;9.30;9.00;;;14.60;99.90;;;;;;5077912;28;20262;-79
2022/07/03 03:35:37;;;;;;;9.20;8.90;;;14.60;99.90;;;;;;5083108;28;20238;-79
2022/07/03 03:38:05;;;;;;;9.10;8.80;;;14.60;99.90;;;;;;5079186;28;20329;-79
2022/07/03 03:40:34;;;;;;;9.20;8.90;;;14.60;99.90;;;;;;5079447;28;20242;-79
2022/07/03 03:43:03;;;;;;;9.20;8.90;;;14.60;99.90;;;;;;5079188;28;20320;-79
2022/07/03 03:45:30;;;;;;;9.20;8.90;;;14.60;99.90;;;;;;5078628;28;20776;-79
2022/07/03 03:47:59;;;;;;;9.25;8.95;;;14.60;99.90;;;;;;5079523;28;20305;-79
2022/07/03 03:50:27;;;;;;;9.20;8.90;;;14.60;99.90;;;;;;5078267;28;20226;-79
2022/07/03 03:52:55;;;;;;;9.30;9.00;;;14.60;99.90;;;;;;5095590;28;20250;-78
2022/07/03 03:55:22;;;;;;;9.20;8.90;;;14.60;99.90;;;;;;5081188;28;20289;-79
2022/07/03 03:57:50;;;;;;;9.20;8.90;;;14.60;99.90;;;;;;5080099;28;20226;-79
2022/07/03 04:00:17;;;;;;;9.27;8.98;;;14.60;99.90;;;;;;5083009;28;20706;-79
2022/07/03 04:02:45;;;;;;;9.10;8.80;;;14.60;99.90;;;;;;5083285;28;20302;-79
2022/07/03 04:05:14;;;;;;;9.30;9.00;;;14.60;99.90;;;;;;5083336;28;20253;-79
2022/07/03 04:07:41;;;;;;;9.30;9.00;;;14.70;99.90;;;;;;5083243;28;20228;-79
2022/07/03 04:10:09;;;;;;;9.33;9.03;;;14.70;99.90;;;;;;5082552;28;20320;-79
2022/07/03 04:12:36;;;;;;;9.60;9.30;;;14.70;99.90;;;;;;5081204;28;20244;-78
2022/07/03 04:15:05;;;;;;;9.50;9.20;;;14.70;99.90;;;;;;5080991;28;20234;-79
2022/07/03 04:17:32;;;;;;;9.50;9.20;;;14.80;99.90;;;;;;5081047;28;20334;-78
2022/07/03 04:20:00;;;;;;;9.15;8.85;;;14.80;99.90;;;;;;5080601;28;20240;-79
2022/07/03 04:22:29;;;;;;;9.05;8.75;;;14.80;99.90;;;;;;5086960;28;20245;-79
2022/07/03 04:24:56;;;;;;;9.40;9.10;;;14.90;99.90;;;;;;5084034;28;20272;-79
2022/07/03 04:27:24;;;;;;;9.50;9.20;;;14.90;99.90;;;;;;5083208;28;20325;-79
2022/07/03 04:29:51;;;;;;;9.50;9.20;;;15.00;99.90;;;;;;5082716;28;20312;-79
2022/07/03 04:32:19;;;;;;;9.20;8.90;;;15.10;99.90;;;;;;5082473;28;20236;-80
2022/07/03 04:34:46;;;;;;;9.30;9.00;;;15.10;99.90;;;;;;5082173;28;20285;-79
2022/07/03 04:37:14;;;;;;;9.35;9.05;;;15.10;99.90;;;;;;5081519;28;20234;-79
2022/07/03 04:39:43;;;;;;;9.60;9.30;;;15.20;99.90;;;;;;5081887;28;20244;-78
2022/07/03 04:42:10;;;;;;;9.48;9.18;;;15.20;99.90;;;;;;5082111;28;20328;-79
2022/07/03 04:44:37;;;;;;;9.40;9.10;;;15.20;99.90;;;;;;5081687;28;20283;-79
2022/07/03 04:47:05;;;;;;;9.27;8.98;;;15.30;99.90;;;;;;5082125;28;20223;-79
2022/07/03 04:49:33;;;;;;;9.40;9.10;;;15.40;99.90;;;;;;5081937;28;20321;-79
2022/07/03 04:52:00;;;;;;;9.43;9.13;;;15.50;99.90;;;;;;5082900;28;20249;-79
2022/07/03 04:54:28;;;;;;;9.40;9.10;;;15.50;99.90;;;;;;5082070;28;20234;-79
2022/07/03 04:56:57;;;;;;;9.52;9.23;;;15.60;99.90;;;;;;5082790;28;20256;-79
2022/07/03 04:59:24;;;;;;;9.50;9.20;;;15.70;99.90;;;;;;5082129;28;20285;-79
2022/07/03 05:01:52;;;;;;;9.63;9.32;;;15.80;99.90;;;;;;5081888;28;20286;-79
2022/07/03 05:04:19;;;;;;;9.70;9.40;;;15.90;99.90;;;;;;5082055;28;20298;-79
2022/07/03 05:06:47;;;;;;;9.77;9.48;;;16.00;99.90;;;;;;5081868;28;20284;-79
2022/07/03 05:09:15;;;;;;;9.70;9.40;;;16.10;99.90;;;;;;5097998;28;20288;-78
2022/07/03 05:11:43;;;;;;;9.70;9.40;;;16.10;99.90;;;;;;5097767;28;20254;-79
2022/07/03 05:14:12;;;;;;;9.90;9.60;;;16.30;99.90;;;;;;5089815;28;20269;-79
2022/07/03 05:16:39;;;;;;;9.70;9.40;;;16.40;99.90;;;;;;5094027;22;20238;-81
2022/07/03 05:19:07;;;;;;;9.68;9.38;;;16.50;99.90;;;;;;5061980;28;20289;-80
2022/07/03 05:21:34;;;;;;;9.57;9.27;;;16.50;99.90;;;;;;5062219;28;20254;-81
2022/07/03 05:24:02;;;;;;;9.90;9.60;;;16.60;99.90;;;;;;5062069;28;20262;-79
2022/07/03 05:26:30;;;;;;;9.70;9.40;;;16.70;99.90;;;;;;5063684;28;20255;-79
2022/07/03 05:28:57;;;;;;;9.60;9.30;;;16.80;99.90;;;;;;5075570;28;20235;-80
2022/07/03 05:31:26;;;;;;;9.50;9.20;;;16.90;99.90;;;;;;5075459;28;20291;-80
2022/07/03 05:33:54;;;;;;;9.63;9.32;;;17.00;99.90;;;;;;5069369;28;20325;-80
2022/07/03 05:36:21;;;;;;;9.80;9.50;;;17.10;99.90;;;;;;5065339;28;20223;-80
2022/07/03 05:41:36;;;;;;;9.88;9.57;;;17.30;99.90;;;;;;5065162;28;20231;-81
2022/07/03 05:44:05;;;;;;;9.80;9.50;;;17.40;99.90;;;;;;5064247;28;20327;-81
2022/07/03 05:46:34;;;;;;;9.82;9.52;;;17.60;99.90;;;;;;5064273;28;20313;-79
2022/07/03 05:49:01;;;;;;;9.75;9.45;;;17.70;99.90;;;;;;5063923;28;20234;-80
2022/07/03 05:51:28;;;;;;;9.85;9.55;;;17.80;99.90;;;;;;5063338;28;20282;-80
2022/07/03 05:53:56;;;;;;;10.00;9.70;;;17.90;99.90;;;;;;5064315;28;20325;-81
2022/07/03 05:56:24;;;;;;;9.70;9.40;;;18.00;99.90;;;;;;5062801;28;20234;-80
2022/07/03 05:58:52;;;;;;;9.73;9.43;;;18.10;99.90;;;;;;5062776;28;20242;-81
2022/07/03 06:01:19;;;;;;;9.80;9.50;;;18.20;99.90;;;;;;5062572;28;20384;-81
2022/07/03 06:03:48;;;;;;;9.95;9.65;;;18.30;99.90;;;;;;5061732;28;20292;-81
2022/07/03 06:06:16;;;;;;;10.15;9.85;;;18.40;99.90;;;;;;5062095;28;20269;-81
2022/07/03 06:08:43;;;;;;;10.15;9.85;;;18.50;99.90;;;;;;5063712;28;20245;-81
2022/07/03 06:11:11;;;;;;;10.18;9.88;;;18.70;99.90;;;;;;5076995;28;20287;-79
2022/07/03 06:13:38;;;;;;;10.07;9.77;;;18.80;99.90;;;;;;5078806;28;20215;-79
2022/07/03 06:16:06;;;;;;;10.20;9.90;;;18.90;99.90;;;;;;5076377;28;20249;-80
2022/07/03 06:18:33;;;;;;;10.05;9.75;;;19.00;99.90;;;;;;5079172;28;20245;-80
2022/07/03 06:21:02;;;;;;;10.38;10.07;;;19.10;99.90;;;;;;5079460;28;20294;-79
2022/07/03 06:23:30;;;;;;;10.20;9.90;;;19.30;99.90;;;;;;5077828;28;20227;-80
2022/07/03 06:25:57;;;;;;;10.40;10.10;;;19.40;99.90;;;;;;5075827;28;20290;-80
2022/07/03 06:28:24;;;;;;;10.30;10.00;;;19.60;99.90;;;;;;5078097;28;20302;-80
2022/07/03 06:30:52;;;;;;;10.13;9.82;;;19.70;99.90;;;;;;5062376;28;20321;-80
2022/07/03 06:33:20;;;;;;;10.38;10.07;;;19.80;99.90;;;;;;5059667;28;20325;-80
2022/07/03 06:35:47;;;;;;;10.45;10.15;;;20.00;99.90;;;;;;5061877;28;20227;-80
2022/07/03 06:38:16;;;;;;;10.10;9.80;;;20.20;99.90;;;;;;5065644;28;20235;-81
2022/07/03 06:40:43;;;;;;;10.80;10.50;;;20.30;99.90;;;;;;5062485;28;20302;-81
2022/07/03 06:43:11;;;;;;;10.80;10.50;;;20.40;99.90;;;;;;5059609;28;20755;-81
2022/07/03 06:45:38;;;;;;;10.70;10.40;;;20.50;99.90;;;;;;5058253;28;20227;-81
2022/07/03 06:48:06;;;;;;;10.40;10.10;;;20.70;99.90;;;;;;5059003;28;20241;-80
2022/07/03 06:50:34;;;;;;;10.52;10.23;;;20.80;99.90;;;;;;5059216;28;20298;-81
2022/07/03 06:53:01;;;;;;;10.60;10.30;;;21.00;99.90;;;;;;5060133;28;20270;-80
2022/07/03 06:55:32;;;;;;;10.48;10.18;;;21.00;99.90;;;;;;5059245;28;20317;-82
2022/07/03 06:57:59;;;;;;;10.85;10.55;;;21.20;99.90;;;;;;5059323;28;20277;-81
2022/07/03 07:00:27;;;;;;;10.77;10.48;;;21.30;99.90;;;;;;5060166;28;20245;-82
2022/07/03 07:02:54;;;;;;;10.75;10.45;;;21.50;99.90;;;;;;5061602;28;20258;-81
2022/07/03 07:05:22;;;;;;;10.77;10.48;;;21.60;99.90;;;;;;5060632;28;20324;-81
2022/07/03 07:07:50;;;;;;;10.88;10.57;;;21.80;99.90;;;;;;5060992;28;20273;-81
2022/07/03 07:10:17;;;;;;;10.60;10.30;;;22.00;99.90;;;;;;5059972;28;20277;-81
2022/07/03 07:12:47;;;;;;;10.48;10.18;;;22.20;99.90;;;;;;5066053;28;20235;-81
2022/07/03 07:15:14;;;;;;;10.60;10.30;;;22.40;99.90;;;;;;5065484;28;20227;-80
2022/07/03 07:17:42;;;;;;;10.60;10.30;;;22.50;99.90;;;;;;5068130;28;20302;-82
2022/07/03 07:20:11;;;;;;;10.65;10.35;;;22.70;99.90;;;;;;5061563;28;20230;-81
2022/07/03 07:22:38;;;;;;;10.60;10.30;;;22.80;99.90;;;;;;5062042;28;20239;-81
2022/07/03 07:25:07;;;;;;;10.77;10.48;;;22.90;99.90;;;;;;5058070;28;20346;-81
2022/07/03 07:27:35;;;;;;;10.68;10.38;;;23.00;99.90;;;;;;5057785;28;20401;-81
2022/07/03 07:30:05;;;;;;;10.55;10.25;;;23.00;99.90;;;;;;5059442;28;20273;-81
2022/07/03 07:32:32;;;;;;;10.73;10.43;;;23.00;99.90;;;;;;5058523;28;20288;-80
2022/07/03 07:35:00;;;;;;;10.63;10.32;;;23.10;99.90;;;;;;5062269;28;20305;-81
2022/07/03 07:37:27;;;;;;;11.00;10.70;;;23.20;99.90;;;;;;5063666;28;20258;-81
2022/07/03 07:39:55;;;;;;;10.90;10.60;;;23.30;99.90;;;;;;5063133;28;20256;-81
2022/07/03 07:42:24;;;;;;;11.00;10.70;;;23.50;99.90;;;;;;5064352;28;20222;-81
2022/07/03 07:44:51;;;;;;;11.15;10.85;;;23.60;99.90;;;;;;5063709;28;20261;-81
2022/07/03 07:47:20;;;;;;;10.90;10.60;;;23.70;99.90;;;;;;5067676;28;20257;-81
2022/07/03 07:49:48;;;;;;;11.20;10.90;;;23.70;99.90;;;;;;5075092;28;20235;-81
2022/07/03 07:52:15;;;;;;;11.10;10.80;;;23.80;99.90;;;;;;5068201;28;20230;-81
2022/07/03 07:54:43;;;;;;;11.10;10.80;;;23.90;99.90;;;;;;5066578;28;20231;-82
2022/07/03 07:57:12;;;;;;;10.98;10.68;;;24.10;99.90;;;;;;5065031;28;20234;-82
2022/07/03 07:59:40;;;;;;;10.60;10.30;;;24.20;99.90;;;;;;5065071;28;20230;-81
2022/07/03 08:07:38;;;;;;;10.70;10.40;;;24.40;99.90;;;;;;5064679;28;20227;-82
2022/07/03 08:10:06;;;;;;;10.68;10.38;;;24.60;99.90;;;;;;5064583;28;20307;-81
2022/07/03 08:12:34;;;;;;;10.65;10.35;;;24.70;99.90;;;;;;5064004;28;20277;-81
2022/07/03 08:15:01;;;;;;;10.57;10.27;;;24.80;99.90;;;;;;5063347;28;20314;-81
2022/07/03 08:17:31;;;;;;;10.65;10.35;;;24.90;99.90;;;;;;5063482;28;20234;-81
2022/07/03 08:20:00;;;;;;;10.70;10.40;;;25.00;99.90;;;;;;5063200;28;20690;-81
2022/07/03 08:22:27;;;;;;;10.57;10.27;;;25.10;99.90;;;;;;5063000;28;20329;-82
2022/07/03 08:24:55;;;;;;;10.75;10.45;;;25.20;99.90;;;;;;5062934;28;20710;-81
2022/07/03 08:27:22;;;;;;;10.90;10.60;;;25.30;99.90;;;;;;5063954;28;20294;-81
2022/07/03 08:29:50;;;;;;;10.60;10.30;;;25.40;99.90;;;;;;5065424;28;20322;-82
2022/07/03 08:32:17;;;;;;;10.60;10.30;;;25.50;99.90;;;;;;5064204;28;20321;-82
2022/07/03 08:34:45;;;;;;;10.45;10.15;;;25.60;99.90;;;;;;5064158;28;20260;-81
2022/07/03 08:37:14;;;;;;;10.48;10.18;;;25.80;99.90;;;;;;5063104;28;20239;-82
2022/07/03 08:39:41;;;;;;;10.73;10.43;;;25.90;99.90;;;;;;5063983;28;20230;-82
2022/07/03 08:42:15;;;;;;;10.80;10.50;;;26.20;99.90;;;;;;5063495;28;20245;-82
2022/07/03 08:44:44;;;;;;;10.90;10.60;;;26.30;99.90;;;;;;5063713;28;20245;-82
2022/07/03 08:47:13;;;;;;;10.68;10.38;;;26.50;99.90;;;;;;5062604;28;20234;-82
2022/07/03 08:49:43;;;;;;;11.00;10.70;;;26.60;99.90;;;;;;5064225;28;20234;-82
2022/07/03 08:52:11;;;;;;;11.00;10.70;;;26.60;99.90;;;;;;5063572;28;20294;-82
2022/07/03 08:54:40;;;;;;;10.80;10.50;;;26.80;99.90;;;;;;5062829;28;20215;-82
2022/07/03 08:57:09;;;;;;;10.88;10.57;;;26.90;99.90;;;;;;5063155;28;20234;-82
2022/07/03 08:59:40;;;;;;;10.75;10.45;;;27.20;99.90;;;;;;5062869;28;20235;-82
2022/07/03 09:02:08;;;;;;;10.68;10.38;;;27.40;99.90;;;;;;5063302;28;20239;-82
2022/07/03 09:04:36;;;;;;;11.07;10.77;;;27.40;99.90;;;;;;5061547;28;20241;-82
2022/07/03 09:07:06;;;;;;;10.52;10.23;;;27.50;99.90;;;;;;5063226;28;20231;-81
2022/07/03 09:09:35;;;;;;;11.00;10.70;;;27.60;99.90;;;;;;5062858;28;20230;-82
2022/07/03 09:12:05;;;;;;;10.57;10.27;;;27.90;99.90;;;;;;5062263;28;20226;-82
2022/07/03 09:14:32;;;;;;;10.63;10.32;;;28.20;99.90;;;;;;5062067;28;20729;-82
2022/07/03 09:17:00;;;;;;;10.70;10.40;;;28.00;99.90;;;;;;5061597;28;20235;-82
2022/07/03 09:19:45;;;;;;;10.70;10.40;;;28.00;99.90;;;;;;5062022;28;20235;-82
2022/07/03 09:22:22;;;;;;;10.45;10.15;;;28.20;99.90;;;;;;5061356;28;20243;-82
2022/07/03 09:24:50;;;;;;;10.52;10.23;;;28.50;99.90;;;;;;5062418;28;20219;-82
2022/07/03 09:27:21;;;;;;;10.77;10.48;;;28.70;99.90;;;;;;5062402;28;20239;-82
2022/07/03 09:29:59;;;;;;;10.60;10.30;;;28.70;99.90;;;;;;5062284;28;20317;-82
2022/07/03 09:32:27;;;;;;;10.75;10.45;;;28.80;99.90;;;;;;5062323;28;20238;-82
2022/07/03 09:35:18;;;;;;;10.70;10.40;;;28.90;99.90;;;;;;5070556;28;20229;-82
2022/07/03 09:37:56;;;;;;;10.88;10.57;;;28.80;99.90;;;;;;5059432;28;20243;-83
2022/07/03 09:40:25;;;;;;;10.90;10.60;;;28.70;99.90;;;;;;5058992;28;20325;-82
2022/07/03 09:43:06;;;;;;;10.80;10.50;;;28.80;99.90;;;;;;5060084;28;20291;-82
2022/07/03 09:45:54;;;;;;;11.05;10.75;;;28.90;99.90;;;;;;5062150;28;20231;-82
2022/07/03 09:48:34;;;;;;;11.00;10.70;;;29.00;99.90;;;;;;5064324;28;20329;-83
2022/07/03 09:51:23;;;;;;;10.95;10.65;;;29.00;99.90;;;;;;5064814;28;20342;-82
2022/07/03 09:53:56;;;;;;;11.02;10.73;;;29.20;99.90;;;;;;5066919;28;20227;-82
2022/07/03 09:56:26;;;;;;;10.90;10.60;;;29.10;99.90;;;;;;5064391;28;20219;-82
2022/07/03 09:59:09;;;;;;;11.07;10.77;;;29.10;99.90;;;;;;5063350;28;20245;-82
2022/07/03 10:01:39;;;;;;;10.77;10.48;;;29.10;99.90;;;;;;5062646;28;20293;-83
2022/07/03 10:04:18;;;;;;;10.82;10.52;;;29.10;99.90;;;;;;5064518;28;20294;-82
2022/07/03 10:06:54;;;;;;;10.98;10.68;;;29.30;99.90;;;;;;5065197;28;20293;-82
2022/07/03 10:09:24;;;;;;;10.80;10.50;;;29.60;99.90;;;;;;5069391;28;20258;-82
2022/07/03 10:11:52;;;;;;;10.43;10.13;;;29.70;99.90;;;;;;5065928;28;20314;-82
2022/07/03 10:14:23;;;;;;;10.50;10.20;;;29.80;99.90;;;;;;5063242;28;20290;-83
2022/07/03 10:16:51;;;;;;;10.50;10.20;;;30.10;99.90;;;;;;5063879;28;20227;-83
2022/07/03 10:19:20;;;;;;;10.75;10.45;;;30.30;99.90;;;;;;5064446;28;20258;-83
2022/07/03 10:22:00;;;;;;;10.73;10.43;;;30.30;99.90;;;;;;5064095;28;20243;-82
2022/07/03 10:24:30;;;;;;;10.70;10.40;;;30.20;99.90;;;;;;5062579;28;20238;-83
2022/07/03 10:27:00;;;;;;;10.88;10.57;;;30.30;99.90;;;;;;5062585;28;20231;-83
2022/07/03 10:29:30;;;;;;;10.80;10.50;;;30.20;99.90;;;;;;5063115;28;20235;-83
2022/07/03 10:31:58;;;;;;;10.80;10.50;;;30.20;99.90;;;;;;5062425;28;20777;-83
2022/07/03 10:34:29;;;;;;;10.88;10.57;;;30.10;99.90;;;;;;5061010;28;20279;-83
2022/07/03 10:37:00;;;;;;;10.77;10.48;;;30.10;99.90;;;;;;5062047;28;20238;-83
2022/07/03 10:39:48;;;;;;;10.93;10.63;;;30.40;99.90;;;;;;5061900;28;20247;-83
2022/07/03 10:45:20;;;;;;;10.73;10.43;;;31.00;99.90;;;;;;5021658;28;20224;-83
2022/07/03 10:47:49;;;;;;;10.93;10.63;;;30.90;99.90;;;;;;5060688;28;20314;-83
2022/07/03 10:50:18;;;;;;;10.90;10.60;;;30.80;99.90;;;;;;5060816;28;20281;-83
2022/07/03 10:52:47;;;;;;;10.98;10.68;;;31.00;99.90;;;;;;5061334;28;20259;-83
2022/07/03 10:55:16;;;;;;;11.27;10.98;;;31.20;99.90;;;;;;5060365;28;20231;-83
2022/07/03 10:58:05;;;;;;;11.35;11.05;;;31.20;99.90;;;;;;5060933;28;20314;-83
2022/07/03 11:00:58;;;;;;;11.15;10.85;;;31.50;99.90;;;;;;5061731;28;20265;-83
2022/07/03 11:03:55;;;;;;;11.15;10.85;;;31.70;99.90;;;;;;5061414;28;20253;-83
2022/07/03 11:07:01;;;;;;;11.18;10.88;;;32.00;99.90;;;;;;5059709;28;20246;-83
2022/07/03 11:09:29;;;;;;;11.60;11.20;;;32.10;99.90;;;;;;5058971;28;20317;-83
2022/07/03 11:11:57;;;;;;;11.30;11.00;;;32.10;99.90;;;;;;5061235;28;20250;-83
2022/07/03 11:14:26;;;;;;;11.30;11.00;;;32.10;99.90;;;;;;5061512;28;20242;-83
2022/07/03 11:17:21;;;;;;;11.00;10.70;;;32.30;99.90;;;;;;5087438;22;20226;-80
2022/07/03 11:22:48;;;;;;;11.15;10.85;;;32.30;99.90;;;;;;5082237;28;20229;-80
2022/07/03 11:25:16;;;;;;;11.23;10.93;;;32.40;99.90;;;;;;5096181;27;20224;-80
2022/07/03 11:27:44;;;;;;;11.27;10.98;;;32.90;99.90;;;;;;5098247;27;20225;-81
2022/07/03 11:30:12;;;;;;;11.20;10.90;;;32.80;99.90;;;;;;5099180;27;20206;-81
2022/07/03 11:32:57;;;;;;;10.80;10.50;;;32.90;99.90;;;;;;5098352;27;20233;-81
2022/07/03 11:35:55;;;;;;;10.88;10.57;;;33.00;99.90;;;;;;5097885;27;20249;-80
2022/07/03 11:38:29;;;;;;;10.90;10.60;;;33.10;99.90;;;;;;5098145;27;20218;-80
2022/07/03 11:41:07;;;;;;;10.90;10.60;;;33.60;99.90;;;;;;5095383;28;20248;-81
2022/07/03 11:43:35;;;;;;;10.93;10.63;;;33.90;99.90;;;;;;5091117;28;20240;-81
2022/07/03 11:46:03;;;;;;;10.65;10.35;;;34.10;99.90;;;;;;5078834;28;20244;-81
2022/07/03 11:48:33;;;;;;;10.63;10.32;;;34.00;99.90;;;;;;5077999;28;20273;-81
2022/07/03 11:51:03;;;;;;;10.82;10.52;;;33.90;99.90;;;;;;5076928;28;20230;-81
2022/07/03 11:53:32;;;;;;;10.70;10.40;;;34.10;99.90;;;;;;5077846;28;20245;-80
2022/07/03 11:56:03;;;;;;;11.00;10.70;;;34.60;99.90;;;;;;5077743;28;20234;-80
2022/07/03 11:58:45;;;;;;;10.98;10.68;;;34.50;99.90;;;;;;5077821;28;20333;-80
2022/07/03 12:01:30;;;;;;;11.10;10.80;;;34.10;99.90;;;;;;5077270;28;20236;-80
2022/07/03 12:04:07;;;;;;;11.05;10.75;;;33.90;99.90;;;;;;5075665;28;20236;-81
2022/07/03 12:06:36;;;;;;;10.90;10.60;;;34.30;99.90;;;;;;5075054;28;20253;-80
2022/07/03 12:09:03;;;;;;;10.80;10.50;;;34.10;99.10;;;;;;5075845;28;20244;-80
2022/07/03 12:11:31;;;;;;;10.88;10.57;;;34.00;98.80;;;;;;5075857;28;20231;-80
2022/07/03 12:13:59;;;;;;;10.75;10.45;;;33.80;98.60;;;;;;5076346;28;20321;-80
2022/07/03 12:16:34;;;;;;;10.50;10.20;;;34.00;99.30;;;;;;5075340;28;20330;-81
2022/07/03 12:19:07;;;;;;;10.40;10.10;;;34.40;99.80;;;;;;5076013;28;20244;-81
2022/07/03 12:21:39;;;;;;;10.60;10.30;;;34.80;99.70;;;;;;5079733;28;20323;-81
2022/07/03 12:24:14;;;;;;;10.45;10.15;;;35.30;99.90;;;;;;5079427;28;20250;-81
2022/07/03 12:26:42;;;;;;;10.80;10.50;;;35.40;97.80;;;;;;5079137;28;20260;-80
2022/07/03 12:29:11;;;;;;;10.50;10.20;;;35.00;97.30;;;;;;5080623;28;20325;-81
2022/07/03 12:31:41;;;;;;;10.48;10.18;;;34.60;98.10;;;;;;5080623;28;20257;-81
2022/07/03 12:34:12;;;;;;;10.50;10.20;;;34.10;98.10;;;;;;5080650;28;20276;-80
2022/07/03 12:36:40;;;;;;;10.52;10.23;;;33.90;98.90;;;;;;5081337;28;20269;-80
2022/07/03 12:39:08;;;;;;;10.77;10.48;;;34.10;98.90;;;;;;5087523;28;20234;-81
2022/07/03 12:41:36;;;;;;;11.00;10.70;;;34.30;98.10;;;;;;5081276;28;20321;-80
2022/07/03 12:44:03;;;;;;;10.75;10.45;;;34.50;96.90;;;;;;5082010;28;20284;-80
2022/07/03 12:46:36;;;;;;;10.60;10.30;;;34.60;97.00;;;;;;5081107;28;20268;-80
2022/07/03 12:49:12;;;;;;;10.80;10.50;;;34.40;96.40;;;;;;5080638;28;20254;-80
2022/07/03 12:51:41;;;;;;;10.90;10.60;;;34.20;96.20;;;;;;5080171;28;20220;-80
2022/07/03 12:54:10;;;;;;;10.70;10.40;;;34.10;96.40;;;;;;5080631;28;20234;-79
2022/07/03 12:56:38;;;;;;;10.75;10.45;;;34.30;96.80;;;;;;5082144;28;20310;-79
2022/07/03 12:59:17;;;;;;;10.80;10.50;;;34.40;96.60;;;;;;5093135;28;20246;-79
2022/07/03 13:01:46;;;;;;;10.73;10.43;;;34.60;96.20;;;;;;5095093;28;20236;-79
2022/07/03 13:04:17;;;;;;;10.80;10.50;;;34.80;96.40;;;;;;5087743;28;20232;-79
2022/07/03 13:06:46;;;;;;;10.82;10.52;;;35.10;97.70;;;;;;5082186;28;20238;-78
2022/07/03 13:09:13;;;;;;;10.90;10.60;;;35.60;96.80;;;;;;5080697;28;20230;-79
2022/07/03 13:11:43;;;;;;;10.90;10.60;;;35.40;96.30;;;;;;5081551;28;20241;-79